sensor_id;sensor_type;location;lat;lon;timestamp;P1;durP1;ratioP1;P2;durP2;ratioP2
40198;SDS011;25906;43.536;26.068;2022-10-15T00:00:51;3.97;;;1.30;;
40198;SDS011;25906;43.536;26.068;2022-10-15T00:03:40;2.72;;;1.40;;
40198;SDS011;25906;43.536;26.068;2022-10-15T00:06:27;4.85;;;1.30;;
40198;SDS011;25906;43.536;26.068;2022-10-15T00:09:12;3.15;;;1.27;;
40198;SDS011;25906;43.536;26.068;2022-10-15T00:11:57;1.15;;;1.02;;
40198;SDS011;25906;43.536;26.068;2022-10-15T00:14:43;1.73;;;1.08;;
40198;SDS011;25906;43.536;26.068;2022-10-15T00:17:28;1.98;;;1.02;;
40198;SDS011;25906;43.536;26.068;2022-10-15T00:20:14;1.70;;;1.00;;
40198;SDS011;25906;43.536;26.068;2022-10-15T00:22:59;2.72;;;1.45;;
40198;SDS011;25906;43.536;26.068;2022-10-15T00:25:45;1.83;;;1.25;;
40198;SDS011;25906;43.536;26.068;2022-10-15T00:28:30;4.53;;;1.42;;
40198;SDS011;25906;43.536;26.068;2022-10-15T00:31:16;4.40;;;1.52;;
40198;SDS011;25906;43.536;26.068;2022-10-15T00:34:05;2.25;;;1.30;;
40198;SDS011;25906;43.536;26.068;2022-10-15T00:36:50;1.98;;;1.20;;
40198;SDS011;25906;43.536;26.068;2022-10-15T00:39:35;1.80;;;1.27;;
40198;SDS011;25906;43.536;26.068;2022-10-15T00:42:21;4.82;;;1.35;;
40198;SDS011;25906;43.536;26.068;2022-10-15T00:47:55;6.50;;;1.73;;
40198;SDS011;25906;43.536;26.068;2022-10-15T00:50:40;4.72;;;1.30;;
40198;SDS011;25906;43.536;26.068;2022-10-15T00:53:26;5.07;;;1.42;;
40198;SDS011;25906;43.536;26.068;2022-10-15T00:56:11;5.05;;;1.13;;
40198;SDS011;25906;43.536;26.068;2022-10-15T00:59:00;2.38;;;1.30;;
40198;SDS011;25906;43.536;26.068;2022-10-15T01:01:46;2.47;;;1.65;;
40198;SDS011;25906;43.536;26.068;2022-10-15T01:04:31;5.53;;;1.50;;
40198;SDS011;25906;43.536;26.068;2022-10-15T01:07:17;2.72;;;1.33;;
40198;SDS011;25906;43.536;26.068;2022-10-15T01:10:04;3.95;;;1.58;;
40198;SDS011;25906;43.536;26.068;2022-10-15T01:12:52;2.80;;;1.40;;
40198;SDS011;25906;43.536;26.068;2022-10-15T01:15:50;4.68;;;1.90;;
40198;SDS011;25906;43.536;26.068;2022-10-15T01:19:01;6.78;;;1.85;;
40198;SDS011;25906;43.536;26.068;2022-10-15T01:22:06;4.28;;;1.48;;
40198;SDS011;25906;43.536;26.068;2022-10-15T01:30:53;3.33;;;1.50;;
40198;SDS011;25906;43.536;26.068;2022-10-15T01:33:56;5.15;;;1.92;;
40198;SDS011;25906;43.536;26.068;2022-10-15T01:36:50;3.20;;;1.80;;
40198;SDS011;25906;43.536;26.068;2022-10-15T01:40:20;4.25;;;1.70;;
40198;SDS011;25906;43.536;26.068;2022-10-15T01:43:26;2.92;;;1.60;;
40198;SDS011;25906;43.536;26.068;2022-10-15T01:46:18;2.78;;;1.55;;
40198;SDS011;25906;43.536;26.068;2022-10-15T01:49:08;2.75;;;1.38;;
40198;SDS011;25906;43.536;26.068;2022-10-15T01:51:57;4.55;;;1.83;;
40198;SDS011;25906;43.536;26.068;2022-10-15T01:54:46;6.40;;;1.60;;
40198;SDS011;25906;43.536;26.068;2022-10-15T01:57:34;4.00;;;1.83;;
40198;SDS011;25906;43.536;26.068;2022-10-15T02:00:20;4.38;;;1.60;;
40198;SDS011;25906;43.536;26.068;2022-10-15T02:03:06;5.40;;;1.90;;
40198;SDS011;25906;43.536;26.068;2022-10-15T02:12:52;4.75;;;1.60;;
40198;SDS011;25906;43.536;26.068;2022-10-15T02:24:54;4.07;;;1.77;;
40198;SDS011;25906;43.536;26.068;2022-10-15T02:27:42;5.68;;;1.80;;
40198;SDS011;25906;43.536;26.068;2022-10-15T02:30:29;2.45;;;1.88;;
40198;SDS011;25906;43.536;26.068;2022-10-15T02:33:15;4.35;;;2.30;;
40198;SDS011;25906;43.536;26.068;2022-10-15T02:36:03;5.47;;;2.30;;
40198;SDS011;25906;43.536;26.068;2022-10-15T02:38:48;4.80;;;1.88;;
40198;SDS011;25906;43.536;26.068;2022-10-15T02:41:35;3.65;;;2.33;;
40198;SDS011;25906;43.536;26.068;2022-10-15T02:44:22;6.38;;;2.55;;
40198;SDS011;25906;43.536;26.068;2022-10-15T02:47:08;7.22;;;2.13;;
40198;SDS011;25906;43.536;26.068;2022-10-15T02:52:39;3.30;;;1.88;;
40198;SDS011;25906;43.536;26.068;2022-10-15T02:55:24;3.67;;;2.00;;
40198;SDS011;25906;43.536;26.068;2022-10-15T02:58:10;5.10;;;2.13;;
40198;SDS011;25906;43.536;26.068;2022-10-15T03:00:55;3.90;;;1.80;;
40198;SDS011;25906;43.536;26.068;2022-10-15T03:03:41;2.67;;;1.80;;
40198;SDS011;25906;43.536;26.068;2022-10-15T03:06:26;4.70;;;2.17;;
40198;SDS011;25906;43.536;26.068;2022-10-15T03:09:12;3.28;;;1.98;;
40198;SDS011;25906;43.536;26.068;2022-10-15T03:11:57;3.40;;;2.03;;
40198;SDS011;25906;43.536;26.068;2022-10-15T03:14:42;3.45;;;2.03;;
40198;SDS011;25906;43.536;26.068;2022-10-15T03:17:28;3.78;;;2.05;;
40198;SDS011;25906;43.536;26.068;2022-10-15T03:20:13;5.32;;;2.28;;
40198;SDS011;25906;43.536;26.068;2022-10-15T03:22:59;5.40;;;1.73;;
40198;SDS011;25906;43.536;26.068;2022-10-15T03:25:44;4.32;;;2.00;;
40198;SDS011;25906;43.536;26.068;2022-10-15T03:28:29;3.80;;;2.22;;
40198;SDS011;25906;43.536;26.068;2022-10-15T03:31:15;3.55;;;1.92;;
40198;SDS011;25906;43.536;26.068;2022-10-15T03:34:00;3.10;;;1.80;;
40198;SDS011;25906;43.536;26.068;2022-10-15T03:36:46;3.72;;;2.30;;
40198;SDS011;25906;43.536;26.068;2022-10-15T03:39:31;2.95;;;1.77;;
40198;SDS011;25906;43.536;26.068;2022-10-15T03:42:17;3.72;;;1.90;;
40198;SDS011;25906;43.536;26.068;2022-10-15T03:45:02;5.55;;;1.95;;
40198;SDS011;25906;43.536;26.068;2022-10-15T03:47:48;4.03;;;2.00;;
40198;SDS011;25906;43.536;26.068;2022-10-15T03:50:33;6.80;;;2.30;;
40198;SDS011;25906;43.536;26.068;2022-10-15T03:53:19;4.10;;;2.17;;
40198;SDS011;25906;43.536;26.068;2022-10-15T03:56:04;6.32;;;2.10;;
40198;SDS011;25906;43.536;26.068;2022-10-15T04:01:35;3.47;;;1.50;;
40198;SDS011;25906;43.536;26.068;2022-10-15T04:04:21;4.45;;;1.90;;
40198;SDS011;25906;43.536;26.068;2022-10-15T04:07:06;4.15;;;1.73;;
40198;SDS011;25906;43.536;26.068;2022-10-15T04:09:52;3.25;;;1.83;;
40198;SDS011;25906;43.536;26.068;2022-10-15T04:12:37;2.72;;;1.88;;
40198;SDS011;25906;43.536;26.068;2022-10-15T04:15:22;4.15;;;2.05;;
40198;SDS011;25906;43.536;26.068;2022-10-15T04:18:08;4.68;;;2.75;;
40198;SDS011;25906;43.536;26.068;2022-10-15T04:20:53;5.97;;;2.67;;
40198;SDS011;25906;43.536;26.068;2022-10-15T04:23:42;4.57;;;2.08;;
40198;SDS011;25906;43.536;26.068;2022-10-15T04:26:28;6.38;;;2.58;;
40198;SDS011;25906;43.536;26.068;2022-10-15T04:29:14;4.43;;;2.28;;
40198;SDS011;25906;43.536;26.068;2022-10-15T04:32:00;5.65;;;2.08;;
40198;SDS011;25906;43.536;26.068;2022-10-15T04:34:45;5.78;;;2.83;;
40198;SDS011;25906;43.536;26.068;2022-10-15T04:37:32;3.65;;;2.08;;
40198;SDS011;25906;43.536;26.068;2022-10-15T04:40:18;3.38;;;2.30;;
40198;SDS011;25906;43.536;26.068;2022-10-15T04:43:03;6.47;;;2.45;;
40198;SDS011;25906;43.536;26.068;2022-10-15T04:45:49;6.85;;;2.20;;
40198;SDS011;25906;43.536;26.068;2022-10-15T04:48:35;6.82;;;2.33;;
40198;SDS011;25906;43.536;26.068;2022-10-15T04:51:22;4.65;;;2.10;;
40198;SDS011;25906;43.536;26.068;2022-10-15T04:54:08;3.53;;;1.77;;
40198;SDS011;25906;43.536;26.068;2022-10-15T04:56:53;3.17;;;1.92;;
40198;SDS011;25906;43.536;26.068;2022-10-15T04:59:39;5.25;;;2.00;;
40198;SDS011;25906;43.536;26.068;2022-10-15T05:02:24;4.78;;;1.77;;
40198;SDS011;25906;43.536;26.068;2022-10-15T05:05:10;5.93;;;2.22;;
40198;SDS011;25906;43.536;26.068;2022-10-15T05:08:02;4.55;;;2.10;;
40198;SDS011;25906;43.536;26.068;2022-10-15T05:10:48;9.25;;;2.63;;
40198;SDS011;25906;43.536;26.068;2022-10-15T05:13:34;5.32;;;2.65;;
40198;SDS011;25906;43.536;26.068;2022-10-15T05:16:20;3.05;;;2.17;;
40198;SDS011;25906;43.536;26.068;2022-10-15T05:19:08;5.82;;;2.10;;
40198;SDS011;25906;43.536;26.068;2022-10-15T05:21:55;9.70;;;2.13;;
40198;SDS011;25906;43.536;26.068;2022-10-15T05:24:40;3.75;;;2.03;;
40198;SDS011;25906;43.536;26.068;2022-10-15T05:27:25;3.83;;;2.00;;
40198;SDS011;25906;43.536;26.068;2022-10-15T05:30:11;5.07;;;2.55;;
40198;SDS011;25906;43.536;26.068;2022-10-15T05:32:56;5.47;;;2.40;;
40198;SDS011;25906;43.536;26.068;2022-10-15T05:35:41;11.93;;;2.55;;
40198;SDS011;25906;43.536;26.068;2022-10-15T05:38:27;10.00;;;2.63;;
40198;SDS011;25906;43.536;26.068;2022-10-15T05:41:12;5.55;;;2.10;;
40198;SDS011;25906;43.536;26.068;2022-10-15T05:43:58;5.43;;;1.95;;
40198;SDS011;25906;43.536;26.068;2022-10-15T05:46:43;4.47;;;2.08;;
40198;SDS011;25906;43.536;26.068;2022-10-15T05:49:28;3.67;;;1.83;;
40198;SDS011;25906;43.536;26.068;2022-10-15T05:52:14;2.85;;;1.92;;
40198;SDS011;25906;43.536;26.068;2022-10-15T05:57:46;3.33;;;1.67;;
40198;SDS011;25906;43.536;26.068;2022-10-15T06:00:31;4.85;;;2.08;;
40198;SDS011;25906;43.536;26.068;2022-10-15T06:03:17;5.97;;;2.25;;
40198;SDS011;25906;43.536;26.068;2022-10-15T06:06:03;5.47;;;2.60;;
40198;SDS011;25906;43.536;26.068;2022-10-15T06:08:48;3.83;;;1.75;;
40198;SDS011;25906;43.536;26.068;2022-10-15T06:14:20;7.47;;;2.50;;
40198;SDS011;25906;43.536;26.068;2022-10-15T06:17:05;8.35;;;2.10;;
40198;SDS011;25906;43.536;26.068;2022-10-15T06:19:51;6.05;;;2.65;;
40198;SDS011;25906;43.536;26.068;2022-10-15T06:22:36;5.35;;;2.45;;
40198;SDS011;25906;43.536;26.068;2022-10-15T06:25:21;7.20;;;2.35;;
40198;SDS011;25906;43.536;26.068;2022-10-15T06:28:07;4.35;;;2.42;;
40198;SDS011;25906;43.536;26.068;2022-10-15T06:30:56;5.38;;;2.30;;
40198;SDS011;25906;43.536;26.068;2022-10-15T06:33:42;6.28;;;2.67;;
40198;SDS011;25906;43.536;26.068;2022-10-15T06:36:28;5.32;;;2.85;;
40198;SDS011;25906;43.536;26.068;2022-10-15T06:39:13;4.13;;;2.78;;
40198;SDS011;25906;43.536;26.068;2022-10-15T06:41:58;6.32;;;2.67;;
40198;SDS011;25906;43.536;26.068;2022-10-15T06:44:44;4.13;;;2.95;;
40198;SDS011;25906;43.536;26.068;2022-10-15T06:47:29;6.00;;;3.08;;
40198;SDS011;25906;43.536;26.068;2022-10-15T06:50:15;7.55;;;3.20;;
40198;SDS011;25906;43.536;26.068;2022-10-15T06:53:00;6.03;;;3.22;;
40198;SDS011;25906;43.536;26.068;2022-10-15T06:58:31;5.18;;;2.67;;
40198;SDS011;25906;43.536;26.068;2022-10-15T07:01:17;9.65;;;3.10;;
40198;SDS011;25906;43.536;26.068;2022-10-15T07:04:02;8.45;;;3.58;;
40198;SDS011;25906;43.536;26.068;2022-10-15T07:06:48;5.28;;;3.75;;
40198;SDS011;25906;43.536;26.068;2022-10-15T07:09:33;13.48;;;4.30;;
40198;SDS011;25906;43.536;26.068;2022-10-15T07:12:19;8.25;;;3.08;;
40198;SDS011;25906;43.536;26.068;2022-10-15T07:15:06;6.70;;;3.13;;
40198;SDS011;25906;43.536;26.068;2022-10-15T07:17:52;10.98;;;3.35;;
40198;SDS011;25906;43.536;26.068;2022-10-15T07:20:45;6.90;;;3.20;;
40198;SDS011;25906;43.536;26.068;2022-10-15T07:23:30;9.75;;;3.45;;
40198;SDS011;25906;43.536;26.068;2022-10-15T07:26:16;7.80;;;3.25;;
40198;SDS011;25906;43.536;26.068;2022-10-15T07:29:02;6.43;;;3.08;;
40198;SDS011;25906;43.536;26.068;2022-10-15T07:31:48;5.85;;;3.58;;
40198;SDS011;25906;43.536;26.068;2022-10-15T07:34:33;8.27;;;3.22;;
40198;SDS011;25906;43.536;26.068;2022-10-15T07:37:19;7.85;;;3.35;;
40198;SDS011;25906;43.536;26.068;2022-10-15T07:40:04;5.30;;;3.42;;
40198;SDS011;25906;43.536;26.068;2022-10-15T07:42:54;5.20;;;3.58;;
40198;SDS011;25906;43.536;26.068;2022-10-15T07:45:45;5.55;;;3.45;;
40198;SDS011;25906;43.536;26.068;2022-10-15T07:48:31;6.80;;;3.40;;
40198;SDS011;25906;43.536;26.068;2022-10-15T07:51:17;4.82;;;3.42;;
40198;SDS011;25906;43.536;26.068;2022-10-15T07:54:03;9.38;;;3.50;;
40198;SDS011;25906;43.536;26.068;2022-10-15T07:56:48;4.60;;;3.25;;
40198;SDS011;25906;43.536;26.068;2022-10-15T07:59:34;6.95;;;3.78;;
40198;SDS011;25906;43.536;26.068;2022-10-15T08:02:19;4.90;;;3.47;;
40198;SDS011;25906;43.536;26.068;2022-10-15T08:07:51;13.10;;;3.80;;
40198;SDS011;25906;43.536;26.068;2022-10-15T08:10:36;7.55;;;3.58;;
40198;SDS011;25906;43.536;26.068;2022-10-15T08:13:22;7.00;;;3.83;;
40198;SDS011;25906;43.536;26.068;2022-10-15T08:16:08;9.65;;;3.97;;
40198;SDS011;25906;43.536;26.068;2022-10-15T08:18:56;8.88;;;3.80;;
40198;SDS011;25906;43.536;26.068;2022-10-15T08:21:45;7.13;;;3.90;;
40198;SDS011;25906;43.536;26.068;2022-10-15T08:24:30;8.57;;;3.72;;
40198;SDS011;25906;43.536;26.068;2022-10-15T08:27:16;9.35;;;4.13;;
40198;SDS011;25906;43.536;26.068;2022-10-15T08:30:01;7.93;;;4.03;;
40198;SDS011;25906;43.536;26.068;2022-10-15T08:32:47;11.38;;;3.45;;
40198;SDS011;25906;43.536;26.068;2022-10-15T08:35:33;6.75;;;3.22;;
40198;SDS011;25906;43.536;26.068;2022-10-15T08:38:20;6.45;;;3.55;;
40198;SDS011;25906;43.536;26.068;2022-10-15T08:41:13;14.55;;;4.28;;
40198;SDS011;25906;43.536;26.068;2022-10-15T08:44:14;10.45;;;3.45;;
40198;SDS011;25906;43.536;26.068;2022-10-15T08:47:18;8.13;;;4.03;;
40198;SDS011;25906;43.536;26.068;2022-10-15T08:50:20;6.88;;;4.18;;
40198;SDS011;25906;43.536;26.068;2022-10-15T08:53:12;12.63;;;5.80;;
40198;SDS011;25906;43.536;26.068;2022-10-15T08:56:02;8.70;;;3.88;;
40198;SDS011;25906;43.536;26.068;2022-10-15T08:58:55;8.25;;;4.30;;
40198;SDS011;25906;43.536;26.068;2022-10-15T09:01:59;4.78;;;3.42;;
40198;SDS011;25906;43.536;26.068;2022-10-15T09:05:08;8.60;;;3.70;;
40198;SDS011;25906;43.536;26.068;2022-10-15T09:08:04;5.90;;;3.40;;
40198;SDS011;25906;43.536;26.068;2022-10-15T09:10:51;7.00;;;3.42;;
40198;SDS011;25906;43.536;26.068;2022-10-15T09:13:42;5.22;;;3.28;;
40198;SDS011;25906;43.536;26.068;2022-10-15T09:16:33;9.82;;;3.60;;
40198;SDS011;25906;43.536;26.068;2022-10-15T09:19:21;7.40;;;3.40;;
40198;SDS011;25906;43.536;26.068;2022-10-15T09:22:14;6.97;;;3.65;;
40198;SDS011;25906;43.536;26.068;2022-10-15T09:25:12;6.85;;;3.25;;
40198;SDS011;25906;43.536;26.068;2022-10-15T09:28:00;8.57;;;3.33;;
40198;SDS011;25906;43.536;26.068;2022-10-15T09:30:55;6.60;;;3.00;;
40198;SDS011;25906;43.536;26.068;2022-10-15T09:33:44;5.50;;;3.35;;
40198;SDS011;25906;43.536;26.068;2022-10-15T09:42:39;6.53;;;2.70;;
40198;SDS011;25906;43.536;26.068;2022-10-15T09:45:27;7.63;;;3.13;;
40198;SDS011;25906;43.536;26.068;2022-10-15T09:48:16;6.07;;;2.70;;
40198;SDS011;25906;43.536;26.068;2022-10-15T09:51:11;6.25;;;3.35;;
40198;SDS011;25906;43.536;26.068;2022-10-15T09:54:22;4.70;;;2.95;;
40198;SDS011;25906;43.536;26.068;2022-10-15T09:57:16;4.80;;;2.72;;
40198;SDS011;25906;43.536;26.068;2022-10-15T10:00:07;5.65;;;3.35;;
40198;SDS011;25906;43.536;26.068;2022-10-15T10:03:05;6.93;;;2.80;;
40198;SDS011;25906;43.536;26.068;2022-10-15T10:05:58;10.27;;;3.40;;
40198;SDS011;25906;43.536;26.068;2022-10-15T10:08:55;12.95;;;3.20;;
40198;SDS011;25906;43.536;26.068;2022-10-15T10:11:53;11.57;;;3.25;;
40198;SDS011;25906;43.536;26.068;2022-10-15T10:17:51;8.18;;;3.67;;
40198;SDS011;25906;43.536;26.068;2022-10-15T10:20:37;8.05;;;3.28;;
40198;SDS011;25906;43.536;26.068;2022-10-15T10:23:43;5.90;;;3.17;;
40198;SDS011;25906;43.536;26.068;2022-10-15T10:26:32;4.28;;;2.90;;
40198;SDS011;25906;43.536;26.068;2022-10-15T10:29:20;4.47;;;2.95;;
40198;SDS011;25906;43.536;26.068;2022-10-15T10:32:18;11.45;;;3.65;;
40198;SDS011;25906;43.536;26.068;2022-10-15T10:35:05;8.00;;;3.50;;
40198;SDS011;25906;43.536;26.068;2022-10-15T10:38:20;8.13;;;3.00;;
40198;SDS011;25906;43.536;26.068;2022-10-15T10:41:07;119.63;;;15.10;;
40198;SDS011;25906;43.536;26.068;2022-10-15T10:43:54;13.23;;;4.07;;
40198;SDS011;25906;43.536;26.068;2022-10-15T10:49:31;5.68;;;2.88;;
40198;SDS011;25906;43.536;26.068;2022-10-15T10:55:17;4.45;;;2.65;;
40198;SDS011;25906;43.536;26.068;2022-10-15T10:58:05;4.57;;;2.38;;
40198;SDS011;25906;43.536;26.068;2022-10-15T11:00:57;3.03;;;2.20;;
40198;SDS011;25906;43.536;26.068;2022-10-15T11:03:43;3.83;;;2.50;;
40198;SDS011;25906;43.536;26.068;2022-10-15T11:13:24;7.57;;;2.55;;
40198;SDS011;25906;43.536;26.068;2022-10-15T11:31:29;5.28;;;2.63;;
40198;SDS011;25906;43.536;26.068;2022-10-15T11:34:23;7.60;;;2.55;;
40198;SDS011;25906;43.536;26.068;2022-10-15T11:46:58;8.65;;;2.65;;
40198;SDS011;25906;43.536;26.068;2022-10-15T11:50:04;6.47;;;2.72;;
40198;SDS011;25906;43.536;26.068;2022-10-15T11:56:10;6.35;;;2.45;;
40198;SDS011;25906;43.536;26.068;2022-10-15T11:58:59;3.00;;;2.30;;
40198;SDS011;25906;43.536;26.068;2022-10-15T12:01:49;3.00;;;2.30;;
40198;SDS011;25906;43.536;26.068;2022-10-15T12:04:43;7.28;;;2.78;;
40198;SDS011;25906;43.536;26.068;2022-10-15T12:07:34;5.88;;;2.70;;
40198;SDS011;25906;43.536;26.068;2022-10-15T12:16:57;23.65;;;9.18;;
40198;SDS011;25906;43.536;26.068;2022-10-15T12:19:47;5.40;;;3.22;;
40198;SDS011;25906;43.536;26.068;2022-10-15T12:22:40;4.30;;;3.08;;
40198;SDS011;25906;43.536;26.068;2022-10-15T12:25:39;6.72;;;3.10;;
40198;SDS011;25906;43.536;26.068;2022-10-15T12:28:28;5.47;;;2.95;;
40198;SDS011;25906;43.536;26.068;2022-10-15T12:31:15;7.63;;;3.35;;
40198;SDS011;25906;43.536;26.068;2022-10-15T12:34:04;10.98;;;3.28;;
40198;SDS011;25906;43.536;26.068;2022-10-15T12:36:58;24.63;;;13.18;;
40198;SDS011;25906;43.536;26.068;2022-10-15T12:39:53;11.80;;;6.20;;
40198;SDS011;25906;43.536;26.068;2022-10-15T12:42:41;8.25;;;6.43;;
40198;SDS011;25906;43.536;26.068;2022-10-15T12:45:34;18.30;;;11.25;;
40198;SDS011;25906;43.536;26.068;2022-10-15T12:51:28;7.05;;;3.40;;
40198;SDS011;25906;43.536;26.068;2022-10-15T12:54:31;4.13;;;3.22;;
40198;SDS011;25906;43.536;26.068;2022-10-15T13:03:16;5.80;;;3.25;;
40198;SDS011;25906;43.536;26.068;2022-10-15T13:09:22;5.43;;;3.25;;
40198;SDS011;25906;43.536;26.068;2022-10-15T13:12:19;8.95;;;3.40;;
40198;SDS011;25906;43.536;26.068;2022-10-15T13:15:09;5.35;;;3.15;;
40198;SDS011;25906;43.536;26.068;2022-10-15T13:18:04;9.55;;;3.45;;
40198;SDS011;25906;43.536;26.068;2022-10-15T13:20:52;5.07;;;3.03;;
40198;SDS011;25906;43.536;26.068;2022-10-15T13:23:43;7.38;;;3.05;;
40198;SDS011;25906;43.536;26.068;2022-10-15T13:26:33;5.35;;;3.13;;
40198;SDS011;25906;43.536;26.068;2022-10-15T13:29:20;10.02;;;4.05;;
40198;SDS011;25906;43.536;26.068;2022-10-15T13:32:12;6.00;;;3.20;;
40198;SDS011;25906;43.536;26.068;2022-10-15T13:34:59;6.32;;;3.13;;
40198;SDS011;25906;43.536;26.068;2022-10-15T13:37:46;9.73;;;3.42;;
40198;SDS011;25906;43.536;26.068;2022-10-15T13:40:32;6.15;;;3.58;;
40198;SDS011;25906;43.536;26.068;2022-10-15T13:46:05;6.70;;;3.92;;
40198;SDS011;25906;43.536;26.068;2022-10-15T13:48:55;4.22;;;3.20;;
40198;SDS011;25906;43.536;26.068;2022-10-15T13:51:46;6.22;;;4.35;;
40198;SDS011;25906;43.536;26.068;2022-10-15T13:54:34;4.18;;;3.35;;
40198;SDS011;25906;43.536;26.068;2022-10-15T13:57:20;8.20;;;3.63;;
40198;SDS011;25906;43.536;26.068;2022-10-15T14:00:06;8.48;;;3.90;;
40198;SDS011;25906;43.536;26.068;2022-10-15T14:03:07;6.72;;;4.15;;
40198;SDS011;25906;43.536;26.068;2022-10-15T14:05:53;6.72;;;4.03;;
40198;SDS011;25906;43.536;26.068;2022-10-15T14:08:39;7.82;;;4.38;;
40198;SDS011;25906;43.536;26.068;2022-10-15T14:11:26;5.78;;;3.70;;
40198;SDS011;25906;43.536;26.068;2022-10-15T14:17:30;8.95;;;5.75;;
40198;SDS011;25906;43.536;26.068;2022-10-15T14:20:16;7.07;;;5.18;;
40198;SDS011;25906;43.536;26.068;2022-10-15T14:23:12;7.97;;;5.18;;
40198;SDS011;25906;43.536;26.068;2022-10-15T14:26:00;7.13;;;4.40;;
40198;SDS011;25906;43.536;26.068;2022-10-15T14:28:50;7.88;;;4.95;;
40198;SDS011;25906;43.536;26.068;2022-10-15T14:31:37;8.30;;;4.85;;
40198;SDS011;25906;43.536;26.068;2022-10-15T14:40:19;7.57;;;4.85;;
40198;SDS011;25906;43.536;26.068;2022-10-15T14:43:06;10.05;;;5.47;;
40198;SDS011;25906;43.536;26.068;2022-10-15T14:46:00;10.13;;;5.97;;
40198;SDS011;25906;43.536;26.068;2022-10-15T14:48:48;7.53;;;5.72;;
40198;SDS011;25906;43.536;26.068;2022-10-15T14:51:34;8.63;;;5.57;;
40198;SDS011;25906;43.536;26.068;2022-10-15T14:54:21;9.75;;;5.35;;
40198;SDS011;25906;43.536;26.068;2022-10-15T14:57:21;10.23;;;6.05;;
40198;SDS011;25906;43.536;26.068;2022-10-15T15:00:14;7.03;;;4.95;;
40198;SDS011;25906;43.536;26.068;2022-10-15T15:05:56;6.10;;;4.75;;
40198;SDS011;25906;43.536;26.068;2022-10-15T15:08:43;7.68;;;5.45;;
40198;SDS011;25906;43.536;26.068;2022-10-15T15:11:29;8.30;;;5.38;;
40198;SDS011;25906;43.536;26.068;2022-10-15T15:14:17;11.23;;;5.13;;
40198;SDS011;25906;43.536;26.068;2022-10-15T15:17:11;8.65;;;5.18;;
40198;SDS011;25906;43.536;26.068;2022-10-15T15:20:00;10.20;;;4.95;;
40198;SDS011;25906;43.536;26.068;2022-10-15T15:22:46;8.50;;;5.00;;
40198;SDS011;25906;43.536;26.068;2022-10-15T15:25:34;8.18;;;4.78;;
40198;SDS011;25906;43.536;26.068;2022-10-15T15:28:22;8.50;;;4.82;;
40198;SDS011;25906;43.536;26.068;2022-10-15T15:31:15;5.63;;;4.25;;
40198;SDS011;25906;43.536;26.068;2022-10-15T15:34:01;9.15;;;4.75;;
40198;SDS011;25906;43.536;26.068;2022-10-15T15:36:47;8.90;;;4.70;;
40198;SDS011;25906;43.536;26.068;2022-10-15T15:39:33;8.00;;;4.30;;
40198;SDS011;25906;43.536;26.068;2022-10-15T15:42:20;21.40;;;5.00;;
40198;SDS011;25906;43.536;26.068;2022-10-15T15:45:26;15.25;;;5.50;;
40198;SDS011;25906;43.536;26.068;2022-10-15T15:48:12;8.73;;;5.63;;
40198;SDS011;25906;43.536;26.068;2022-10-15T15:51:00;7.93;;;5.40;;
40198;SDS011;25906;43.536;26.068;2022-10-15T15:53:48;7.28;;;4.82;;
40198;SDS011;25906;43.536;26.068;2022-10-15T15:56:33;7.55;;;5.13;;
40198;SDS011;25906;43.536;26.068;2022-10-15T15:59:19;9.82;;;4.60;;
40198;SDS011;25906;43.536;26.068;2022-10-15T16:02:04;6.05;;;4.13;;
40198;SDS011;25906;43.536;26.068;2022-10-15T16:04:50;8.18;;;5.05;;
40198;SDS011;25906;43.536;26.068;2022-10-15T16:07:35;6.43;;;4.55;;
40198;SDS011;25906;43.536;26.068;2022-10-15T16:10:21;10.43;;;5.40;;
40198;SDS011;25906;43.536;26.068;2022-10-15T16:13:07;6.50;;;4.50;;
40198;SDS011;25906;43.536;26.068;2022-10-15T16:15:52;8.50;;;4.93;;
40198;SDS011;25906;43.536;26.068;2022-10-15T16:18:38;19.42;;;9.52;;
40198;SDS011;25906;43.536;26.068;2022-10-15T16:21:24;11.82;;;6.65;;
40198;SDS011;25906;43.536;26.068;2022-10-15T16:24:11;8.25;;;5.53;;
40198;SDS011;25906;43.536;26.068;2022-10-15T16:26:56;8.63;;;5.82;;
40198;SDS011;25906;43.536;26.068;2022-10-15T16:29:42;8.18;;;5.18;;
40198;SDS011;25906;43.536;26.068;2022-10-15T16:32:27;8.35;;;5.32;;
40198;SDS011;25906;43.536;26.068;2022-10-15T16:35:13;8.63;;;5.28;;
40198;SDS011;25906;43.536;26.068;2022-10-15T16:37:58;9.23;;;5.10;;
40198;SDS011;25906;43.536;26.068;2022-10-15T16:40:45;8.52;;;4.90;;
40198;SDS011;25906;43.536;26.068;2022-10-15T16:43:32;10.20;;;5.38;;
40198;SDS011;25906;43.536;26.068;2022-10-15T16:46:18;7.53;;;5.28;;
40198;SDS011;25906;43.536;26.068;2022-10-15T16:49:04;10.48;;;6.05;;
40198;SDS011;25906;43.536;26.068;2022-10-15T16:51:49;12.63;;;6.65;;
40198;SDS011;25906;43.536;26.068;2022-10-15T16:54:35;11.85;;;6.72;;
40198;SDS011;25906;43.536;26.068;2022-10-15T16:57:21;10.48;;;5.78;;
40198;SDS011;25906;43.536;26.068;2022-10-15T17:00:06;9.48;;;5.43;;
40198;SDS011;25906;43.536;26.068;2022-10-15T17:02:52;9.52;;;5.13;;
40198;SDS011;25906;43.536;26.068;2022-10-15T17:05:39;10.07;;;5.88;;
40198;SDS011;25906;43.536;26.068;2022-10-15T17:08:26;9.00;;;5.05;;
40198;SDS011;25906;43.536;26.068;2022-10-15T17:14:05;12.63;;;5.70;;
40198;SDS011;25906;43.536;26.068;2022-10-15T17:16:52;8.27;;;4.95;;
40198;SDS011;25906;43.536;26.068;2022-10-15T17:19:38;8.93;;;4.13;;
40198;SDS011;25906;43.536;26.068;2022-10-15T17:22:24;7.05;;;4.60;;
40198;SDS011;25906;43.536;26.068;2022-10-15T17:25:10;8.35;;;4.00;;
40198;SDS011;25906;43.536;26.068;2022-10-15T17:27:55;11.43;;;4.38;;
40198;SDS011;25906;43.536;26.068;2022-10-15T17:30:41;8.07;;;4.47;;
40198;SDS011;25906;43.536;26.068;2022-10-15T17:33:26;6.38;;;4.07;;
40198;SDS011;25906;43.536;26.068;2022-10-15T17:36:16;11.63;;;4.40;;
40198;SDS011;25906;43.536;26.068;2022-10-15T17:39:03;11.07;;;4.63;;
40198;SDS011;25906;43.536;26.068;2022-10-15T17:41:49;7.93;;;4.40;;
40198;SDS011;25906;43.536;26.068;2022-10-15T17:44:36;6.60;;;4.15;;
40198;SDS011;25906;43.536;26.068;2022-10-15T17:47:21;5.68;;;3.92;;
40198;SDS011;25906;43.536;26.068;2022-10-15T17:50:07;13.68;;;5.20;;
40198;SDS011;25906;43.536;26.068;2022-10-15T17:52:53;7.05;;;4.07;;
40198;SDS011;25906;43.536;26.068;2022-10-15T17:55:41;7.22;;;4.25;;
40198;SDS011;25906;43.536;26.068;2022-10-15T17:58:26;6.70;;;4.43;;
40198;SDS011;25906;43.536;26.068;2022-10-15T18:01:12;7.07;;;4.38;;
40198;SDS011;25906;43.536;26.068;2022-10-15T18:03:59;7.45;;;4.15;;
40198;SDS011;25906;43.536;26.068;2022-10-15T18:06:45;10.82;;;4.15;;
40198;SDS011;25906;43.536;26.068;2022-10-15T18:09:31;5.95;;;3.67;;
40198;SDS011;25906;43.536;26.068;2022-10-15T18:12:16;5.15;;;3.80;;
40198;SDS011;25906;43.536;26.068;2022-10-15T18:15:02;7.07;;;3.88;;
40198;SDS011;25906;43.536;26.068;2022-10-15T18:17:48;5.00;;;3.60;;
40198;SDS011;25906;43.536;26.068;2022-10-15T18:20:37;7.60;;;3.90;;
40198;SDS011;25906;43.536;26.068;2022-10-15T18:23:26;5.68;;;3.83;;
40198;SDS011;25906;43.536;26.068;2022-10-15T18:26:14;6.57;;;3.67;;
40198;SDS011;25906;43.536;26.068;2022-10-15T18:29:05;9.02;;;3.97;;
40198;SDS011;25906;43.536;26.068;2022-10-15T18:31:50;8.15;;;3.83;;
40198;SDS011;25906;43.536;26.068;2022-10-15T18:34:36;5.80;;;3.90;;
40198;SDS011;25906;43.536;26.068;2022-10-15T18:37:21;4.93;;;3.30;;
40198;SDS011;25906;43.536;26.068;2022-10-15T18:40:07;6.85;;;3.72;;
40198;SDS011;25906;43.536;26.068;2022-10-15T18:42:53;9.10;;;3.42;;
40198;SDS011;25906;43.536;26.068;2022-10-15T18:45:39;5.53;;;2.83;;